sensor_id;sensor_type;location;lat;lon;timestamp;P1;durP1;ratioP1;P2;durP2;ratioP2
11877;SDS011;5998;42.676;23.268;2022-09-23T00:02:09;6.57;;;5.97;;
11877;SDS011;5998;42.676;23.268;2022-09-23T00:04:36;6.77;;;6.10;;
11877;SDS011;5998;42.676;23.268;2022-09-23T00:07:02;6.40;;;5.80;;
11877;SDS011;5998;42.676;23.268;2022-09-23T00:09:29;7.33;;;6.00;;
11877;SDS011;5998;42.676;23.268;2022-09-23T00:11:56;7.17;;;6.37;;
11877;SDS011;5998;42.676;23.268;2022-09-23T00:14:24;6.30;;;5.70;;
11877;SDS011;5998;42.676;23.268;2022-09-23T00:16:50;6.37;;;5.87;;
11877;SDS011;5998;42.676;23.268;2022-09-23T00:19:18;6.50;;;5.90;;
11877;SDS011;5998;42.676;23.268;2022-09-23T00:21:45;6.40;;;5.80;;
11877;SDS011;5998;42.676;23.268;2022-09-23T00:24:12;5.90;;;5.40;;
11877;SDS011;5998;42.676;23.268;2022-09-23T00:26:39;7.90;;;5.97;;
11877;SDS011;5998;42.676;23.268;2022-09-23T00:29:06;7.57;;;6.60;;
11877;SDS011;5998;42.676;23.268;2022-09-23T00:31:33;7.37;;;6.20;;
11877;SDS011;5998;42.676;23.268;2022-09-23T00:34:00;6.37;;;5.73;;
11877;SDS011;5998;42.676;23.268;2022-09-23T00:36:28;6.30;;;5.70;;
11877;SDS011;5998;42.676;23.268;2022-09-23T00:38:56;6.27;;;5.67;;
11877;SDS011;5998;42.676;23.268;2022-09-23T00:41:24;6.50;;;5.90;;
11877;SDS011;5998;42.676;23.268;2022-09-23T00:43:52;6.33;;;5.73;;
11877;SDS011;5998;42.676;23.268;2022-09-23T00:46:21;7.57;;;6.00;;
11877;SDS011;5998;42.676;23.268;2022-09-23T00:48:56;6.30;;;5.70;;
11877;SDS011;5998;42.676;23.268;2022-09-23T00:51:27;8.43;;;6.27;;
11877;SDS011;5998;42.676;23.268;2022-09-23T00:53:58;6.10;;;5.50;;
11877;SDS011;5998;42.676;23.268;2022-09-23T00:56:27;6.23;;;5.63;;
11877;SDS011;5998;42.676;23.268;2022-09-23T00:58:56;7.30;;;6.00;;
11877;SDS011;5998;42.676;23.268;2022-09-23T01:01:23;6.40;;;5.90;;
11877;SDS011;5998;42.676;23.268;2022-09-23T01:03:50;6.63;;;5.97;;
11877;SDS011;5998;42.676;23.268;2022-09-23T01:06:18;8.63;;;7.83;;
11877;SDS011;5998;42.676;23.268;2022-09-23T01:08:47;7.37;;;6.67;;
11877;SDS011;5998;42.676;23.268;2022-09-23T01:14:11;7.30;;;6.60;;
11877;SDS011;5998;42.676;23.268;2022-09-23T01:16:52;6.90;;;6.20;;
11877;SDS011;5998;42.676;23.268;2022-09-23T01:19:30;6.73;;;6.13;;
11877;SDS011;5998;42.676;23.268;2022-09-23T01:22:15;7.00;;;6.40;;
11877;SDS011;5998;42.676;23.268;2022-09-23T01:25:02;6.43;;;5.80;;
11877;SDS011;5998;42.676;23.268;2022-09-23T01:27:56;7.77;;;6.20;;
11877;SDS011;5998;42.676;23.268;2022-09-23T01:30:50;6.47;;;5.83;;
11877;SDS011;5998;42.676;23.268;2022-09-23T01:33:23;6.80;;;6.20;;
11877;SDS011;5998;42.676;23.268;2022-09-23T01:36:05;6.97;;;6.30;;
11877;SDS011;5998;42.676;23.268;2022-09-23T01:38:41;7.07;;;6.10;;
11877;SDS011;5998;42.676;23.268;2022-09-23T01:44:12;6.60;;;5.97;;
11877;SDS011;5998;42.676;23.268;2022-09-23T01:46:47;6.70;;;6.10;;
11877;SDS011;5998;42.676;23.268;2022-09-23T01:49:17;6.40;;;5.80;;
11877;SDS011;5998;42.676;23.268;2022-09-23T01:51:48;6.50;;;5.90;;
11877;SDS011;5998;42.676;23.268;2022-09-23T01:54:20;6.07;;;5.57;;
11877;SDS011;5998;42.676;23.268;2022-09-23T01:56:52;6.43;;;5.83;;
11877;SDS011;5998;42.676;23.268;2022-09-23T01:59:27;6.60;;;5.90;;
11877;SDS011;5998;42.676;23.268;2022-09-23T02:02:00;7.63;;;5.63;;
11877;SDS011;5998;42.676;23.268;2022-09-23T02:04:33;6.10;;;5.53;;
11877;SDS011;5998;42.676;23.268;2022-09-23T02:07:04;5.93;;;5.37;;
11877;SDS011;5998;42.676;23.268;2022-09-23T02:09:40;6.37;;;5.77;;
11877;SDS011;5998;42.676;23.268;2022-09-23T02:12:11;6.17;;;5.40;;
11877;SDS011;5998;42.676;23.268;2022-09-23T02:14:43;10.53;;;5.97;;
11877;SDS011;5998;42.676;23.268;2022-09-23T02:17:16;6.10;;;5.60;;
11877;SDS011;5998;42.676;23.268;2022-09-23T02:19:49;6.40;;;5.80;;
11877;SDS011;5998;42.676;23.268;2022-09-23T02:22:19;6.43;;;5.83;;
11877;SDS011;5998;42.676;23.268;2022-09-23T02:24:49;6.07;;;5.50;;
11877;SDS011;5998;42.676;23.268;2022-09-23T02:27:17;7.10;;;5.60;;
11877;SDS011;5998;42.676;23.268;2022-09-23T02:29:52;6.27;;;5.67;;
11877;SDS011;5998;42.676;23.268;2022-09-23T02:32:24;5.73;;;5.23;;
11877;SDS011;5998;42.676;23.268;2022-09-23T02:34:58;6.17;;;5.57;;
11877;SDS011;5998;42.676;23.268;2022-09-23T02:37:33;6.00;;;5.50;;
11877;SDS011;5998;42.676;23.268;2022-09-23T02:40:10;6.83;;;6.10;;
11877;SDS011;5998;42.676;23.268;2022-09-23T02:42:44;6.00;;;5.40;;
11877;SDS011;5998;42.676;23.268;2022-09-23T02:45:15;6.23;;;5.13;;
11877;SDS011;5998;42.676;23.268;2022-09-23T02:47:45;5.27;;;4.87;;
11877;SDS011;5998;42.676;23.268;2022-09-23T02:50:16;5.00;;;4.60;;
11877;SDS011;5998;42.676;23.268;2022-09-23T02:52:43;6.53;;;5.40;;
11877;SDS011;5998;42.676;23.268;2022-09-23T02:55:11;5.70;;;5.20;;
11877;SDS011;5998;42.676;23.268;2022-09-23T02:57:41;5.43;;;4.93;;
11877;SDS011;5998;42.676;23.268;2022-09-23T03:00:09;4.40;;;4.10;;
11877;SDS011;5998;42.676;23.268;2022-09-23T03:02:49;5.20;;;4.80;;
11877;SDS011;5998;42.676;23.268;2022-09-23T03:05:32;4.77;;;4.37;;
11877;SDS011;5998;42.676;23.268;2022-09-23T03:08:16;5.47;;;4.50;;
11877;SDS011;5998;42.676;23.268;2022-09-23T03:10:54;6.80;;;4.63;;
11877;SDS011;5998;42.676;23.268;2022-09-23T03:13:29;4.87;;;3.97;;
11877;SDS011;5998;42.676;23.268;2022-09-23T03:16:05;5.53;;;4.17;;
11877;SDS011;5998;42.676;23.268;2022-09-23T03:18:39;5.23;;;4.57;;
11877;SDS011;5998;42.676;23.268;2022-09-23T03:21:12;5.23;;;4.47;;
11877;SDS011;5998;42.676;23.268;2022-09-23T03:23:44;4.87;;;4.37;;
11877;SDS011;5998;42.676;23.268;2022-09-23T03:26:18;4.87;;;4.37;;
11877;SDS011;5998;42.676;23.268;2022-09-23T03:28:50;4.83;;;4.43;;
11877;SDS011;5998;42.676;23.268;2022-09-23T03:31:17;5.00;;;4.50;;
11877;SDS011;5998;42.676;23.268;2022-09-23T03:33:46;5.70;;;4.80;;
11877;SDS011;5998;42.676;23.268;2022-09-23T03:36:16;5.23;;;4.77;;
11877;SDS011;5998;42.676;23.268;2022-09-23T03:39:09;6.80;;;5.17;;
11877;SDS011;5998;42.676;23.268;2022-09-23T03:41:40;5.60;;;5.10;;
11877;SDS011;5998;42.676;23.268;2022-09-23T03:44:12;5.50;;;5.00;;
11877;SDS011;5998;42.676;23.268;2022-09-23T03:46:39;6.37;;;5.77;;
11877;SDS011;5998;42.676;23.268;2022-09-23T03:49:12;6.53;;;5.93;;
11877;SDS011;5998;42.676;23.268;2022-09-23T03:51:41;9.20;;;6.00;;
11877;SDS011;5998;42.676;23.268;2022-09-23T03:54:08;6.07;;;5.50;;
11877;SDS011;5998;42.676;23.268;2022-09-23T03:56:35;6.77;;;5.50;;
11877;SDS011;5998;42.676;23.268;2022-09-23T03:59:02;5.93;;;5.43;;
11877;SDS011;5998;42.676;23.268;2022-09-23T04:01:28;8.67;;;6.63;;
11877;SDS011;5998;42.676;23.268;2022-09-23T04:03:55;7.37;;;6.23;;
11877;SDS011;5998;42.676;23.268;2022-09-23T04:06:23;7.87;;;6.40;;
11877;SDS011;5998;42.676;23.268;2022-09-23T04:08:50;8.20;;;6.60;;
11877;SDS011;5998;42.676;23.268;2022-09-23T04:11:16;8.17;;;6.27;;
11877;SDS011;5998;42.676;23.268;2022-09-23T04:13:43;10.47;;;6.87;;
11877;SDS011;5998;42.676;23.268;2022-09-23T04:16:10;8.47;;;6.50;;
11877;SDS011;5998;42.676;23.268;2022-09-23T04:18:36;10.80;;;7.67;;
11877;SDS011;5998;42.676;23.268;2022-09-23T04:21:03;8.00;;;6.67;;
11877;SDS011;5998;42.676;23.268;2022-09-23T04:23:31;10.33;;;8.30;;
11877;SDS011;5998;42.676;23.268;2022-09-23T04:25:58;9.67;;;8.20;;
11877;SDS011;5998;42.676;23.268;2022-09-23T04:28:25;8.53;;;7.73;;
11877;SDS011;5998;42.676;23.268;2022-09-23T04:30:52;10.10;;;7.33;;
11877;SDS011;5998;42.676;23.268;2022-09-23T04:33:20;12.50;;;8.57;;
11877;SDS011;5998;42.676;23.268;2022-09-23T04:35:48;11.20;;;8.37;;
11877;SDS011;5998;42.676;23.268;2022-09-23T04:38:16;13.00;;;8.10;;
11877;SDS011;5998;42.676;23.268;2022-09-23T04:40:44;9.80;;;8.60;;
11877;SDS011;5998;42.676;23.268;2022-09-23T04:43:11;11.93;;;8.13;;
11877;SDS011;5998;42.676;23.268;2022-09-23T04:45:39;11.27;;;8.53;;
11877;SDS011;5998;42.676;23.268;2022-09-23T04:48:06;14.47;;;8.43;;
11877;SDS011;5998;42.676;23.268;2022-09-23T04:50:34;11.57;;;8.90;;
11877;SDS011;5998;42.676;23.268;2022-09-23T04:53:01;13.60;;;9.10;;
11877;SDS011;5998;42.676;23.268;2022-09-23T04:55:29;11.23;;;9.33;;
11877;SDS011;5998;42.676;23.268;2022-09-23T04:57:57;12.90;;;9.40;;
11877;SDS011;5998;42.676;23.268;2022-09-23T05:00:24;13.00;;;9.50;;
11877;SDS011;5998;42.676;23.268;2022-09-23T05:02:52;11.07;;;8.97;;
11877;SDS011;5998;42.676;23.268;2022-09-23T05:05:18;10.83;;;9.27;;
11877;SDS011;5998;42.676;23.268;2022-09-23T05:07:46;16.80;;;10.33;;
11877;SDS011;5998;42.676;23.268;2022-09-23T05:10:13;11.13;;;9.57;;
11877;SDS011;5998;42.676;23.268;2022-09-23T05:12:40;9.97;;;8.83;;
11877;SDS011;5998;42.676;23.268;2022-09-23T05:15:08;13.07;;;9.47;;
11877;SDS011;5998;42.676;23.268;2022-09-23T05:17:40;11.87;;;9.70;;
11877;SDS011;5998;42.676;23.268;2022-09-23T05:20:07;11.33;;;10.13;;
11877;SDS011;5998;42.676;23.268;2022-09-23T05:22:34;11.60;;;10.03;;
11877;SDS011;5998;42.676;23.268;2022-09-23T05:25:01;10.70;;;9.13;;
11877;SDS011;5998;42.676;23.268;2022-09-23T05:27:27;11.17;;;9.63;;
11877;SDS011;5998;42.676;23.268;2022-09-23T05:29:55;13.17;;;9.30;;
11877;SDS011;5998;42.676;23.268;2022-09-23T05:32:23;14.00;;;9.63;;
11877;SDS011;5998;42.676;23.268;2022-09-23T05:34:50;12.73;;;8.87;;
11877;SDS011;5998;42.676;23.268;2022-09-23T05:37:19;10.63;;;7.90;;
11877;SDS011;5998;42.676;23.268;2022-09-23T05:39:46;11.70;;;8.63;;
11877;SDS011;5998;42.676;23.268;2022-09-23T05:42:13;11.73;;;8.40;;
11877;SDS011;5998;42.676;23.268;2022-09-23T05:44:40;12.63;;;8.03;;
11877;SDS011;5998;42.676;23.268;2022-09-23T05:47:07;8.13;;;7.30;;
11877;SDS011;5998;42.676;23.268;2022-09-23T05:49:35;11.87;;;8.00;;
11877;SDS011;5998;42.676;23.268;2022-09-23T05:52:02;8.77;;;7.90;;
11877;SDS011;5998;42.676;23.268;2022-09-23T05:54:28;9.77;;;7.43;;
11877;SDS011;5998;42.676;23.268;2022-09-23T05:56:55;7.43;;;6.70;;
11877;SDS011;5998;42.676;23.268;2022-09-23T05:59:22;7.53;;;6.67;;
11877;SDS011;5998;42.676;23.268;2022-09-23T06:01:49;6.53;;;5.93;;
11877;SDS011;5998;42.676;23.268;2022-09-23T06:04:15;7.37;;;5.40;;
11877;SDS011;5998;42.676;23.268;2022-09-23T06:06:43;5.60;;;5.10;;
11877;SDS011;5998;42.676;23.268;2022-09-23T06:09:11;7.07;;;5.57;;
11877;SDS011;5998;42.676;23.268;2022-09-23T06:11:39;7.53;;;5.70;;
11877;SDS011;5998;42.676;23.268;2022-09-23T06:14:08;6.37;;;5.70;;
11877;SDS011;5998;42.676;23.268;2022-09-23T06:16:37;5.83;;;5.23;;
11877;SDS011;5998;42.676;23.268;2022-09-23T06:19:04;5.30;;;4.90;;
11877;SDS011;5998;42.676;23.268;2022-09-23T06:21:31;5.30;;;4.87;;
11877;SDS011;5998;42.676;23.268;2022-09-23T06:24:00;5.77;;;5.27;;
11877;SDS011;5998;42.676;23.268;2022-09-23T06:26:26;5.87;;;4.87;;
11877;SDS011;5998;42.676;23.268;2022-09-23T06:28:58;4.80;;;4.30;;
11877;SDS011;5998;42.676;23.268;2022-09-23T06:31:26;4.50;;;4.10;;
11877;SDS011;5998;42.676;23.268;2022-09-23T06:33:53;4.97;;;4.07;;
11877;SDS011;5998;42.676;23.268;2022-09-23T06:36:20;5.57;;;4.93;;
11877;SDS011;5998;42.676;23.268;2022-09-23T06:38:46;6.57;;;4.43;;
11877;SDS011;5998;42.676;23.268;2022-09-23T06:41:15;8.83;;;4.67;;
11877;SDS011;5998;42.676;23.268;2022-09-23T06:43:44;5.63;;;4.67;;
11877;SDS011;5998;42.676;23.268;2022-09-23T06:46:12;4.77;;;4.33;;
11877;SDS011;5998;42.676;23.268;2022-09-23T06:48:41;4.90;;;4.47;;
11877;SDS011;5998;42.676;23.268;2022-09-23T06:51:09;5.60;;;4.97;;
11877;SDS011;5998;42.676;23.268;2022-09-23T06:53:43;5.30;;;4.80;;
11877;SDS011;5998;42.676;23.268;2022-09-23T06:56:10;6.83;;;4.40;;
11877;SDS011;5998;42.676;23.268;2022-09-23T06:58:38;5.10;;;4.70;;
11877;SDS011;5998;42.676;23.268;2022-09-23T07:01:06;8.37;;;5.07;;
11877;SDS011;5998;42.676;23.268;2022-09-23T07:03:33;5.70;;;5.20;;
11877;SDS011;5998;42.676;23.268;2022-09-23T07:06:01;8.27;;;5.23;;
11877;SDS011;5998;42.676;23.268;2022-09-23T07:08:28;5.53;;;5.03;;
11877;SDS011;5998;42.676;23.268;2022-09-23T07:10:58;6.27;;;5.10;;
11877;SDS011;5998;42.676;23.268;2022-09-23T07:13:25;8.13;;;5.30;;
11877;SDS011;5998;42.676;23.268;2022-09-23T07:15:55;5.30;;;4.80;;
11877;SDS011;5998;42.676;23.268;2022-09-23T07:18:28;5.23;;;4.70;;
11877;SDS011;5998;42.676;23.268;2022-09-23T07:21:03;11.23;;;5.27;;
11877;SDS011;5998;42.676;23.268;2022-09-23T07:23:31;5.70;;;4.90;;
11877;SDS011;5998;42.676;23.268;2022-09-23T07:25:58;4.83;;;4.40;;
11877;SDS011;5998;42.676;23.268;2022-09-23T07:28:25;5.87;;;4.63;;
11877;SDS011;5998;42.676;23.268;2022-09-23T07:30:54;4.23;;;3.83;;
11877;SDS011;5998;42.676;23.268;2022-09-23T07:33:21;4.50;;;4.10;;
11877;SDS011;5998;42.676;23.268;2022-09-23T07:35:48;4.67;;;4.27;;
11877;SDS011;5998;42.676;23.268;2022-09-23T07:38:14;4.80;;;4.40;;
11877;SDS011;5998;42.676;23.268;2022-09-23T07:40:41;4.97;;;4.20;;
11877;SDS011;5998;42.676;23.268;2022-09-23T07:43:08;4.20;;;3.90;;
11877;SDS011;5998;42.676;23.268;2022-09-23T07:45:36;5.17;;;4.17;;
11877;SDS011;5998;42.676;23.268;2022-09-23T07:48:09;4.67;;;4.27;;
11877;SDS011;5998;42.676;23.268;2022-09-23T07:50:37;4.17;;;3.87;;
11877;SDS011;5998;42.676;23.268;2022-09-23T07:53:04;6.13;;;4.27;;
11877;SDS011;5998;42.676;23.268;2022-09-23T07:55:32;4.60;;;4.20;;
11877;SDS011;5998;42.676;23.268;2022-09-23T07:58:00;4.47;;;4.13;;
11877;SDS011;5998;42.676;23.268;2022-09-23T08:00:26;5.93;;;4.10;;
11877;SDS011;5998;42.676;23.268;2022-09-23T08:02:53;5.20;;;3.70;;
11877;SDS011;5998;42.676;23.268;2022-09-23T08:05:21;3.83;;;3.40;;
11877;SDS011;5998;42.676;23.268;2022-09-23T08:07:48;4.10;;;3.80;;
11877;SDS011;5998;42.676;23.268;2022-09-23T08:10:15;3.70;;;3.40;;
11877;SDS011;5998;42.676;23.268;2022-09-23T08:12:43;7.43;;;4.10;;
11877;SDS011;5998;42.676;23.268;2022-09-23T08:15:10;4.20;;;3.80;;
11877;SDS011;5998;42.676;23.268;2022-09-23T08:17:36;4.30;;;3.83;;
11877;SDS011;5998;42.676;23.268;2022-09-23T08:20:03;4.20;;;3.90;;
11877;SDS011;5998;42.676;23.268;2022-09-23T08:22:32;4.67;;;3.90;;
11877;SDS011;5998;42.676;23.268;2022-09-23T08:24:59;6.17;;;3.90;;
11877;SDS011;5998;42.676;23.268;2022-09-23T08:27:25;6.80;;;4.50;;
11877;SDS011;5998;42.676;23.268;2022-09-23T08:29:53;5.03;;;4.10;;
11877;SDS011;5998;42.676;23.268;2022-09-23T08:32:20;5.63;;;3.70;;
11877;SDS011;5998;42.676;23.268;2022-09-23T08:34:46;8.80;;;4.10;;
11877;SDS011;5998;42.676;23.268;2022-09-23T08:37:13;4.23;;;3.80;;
11877;SDS011;5998;42.676;23.268;2022-09-23T08:39:41;4.67;;;3.80;;
11877;SDS011;5998;42.676;23.268;2022-09-23T08:42:11;4.60;;;3.60;;
11877;SDS011;5998;42.676;23.268;2022-09-23T08:44:45;4.17;;;3.50;;
11877;SDS011;5998;42.676;23.268;2022-09-23T08:47:17;3.77;;;3.37;;
11877;SDS011;5998;42.676;23.268;2022-09-23T08:49:56;4.57;;;4.10;;
11877;SDS011;5998;42.676;23.268;2022-09-23T08:52:28;5.50;;;3.77;;
11877;SDS011;5998;42.676;23.268;2022-09-23T08:55:01;3.67;;;2.97;;
11877;SDS011;5998;42.676;23.268;2022-09-23T08:57:34;3.30;;;3.10;;
11877;SDS011;5998;42.676;23.268;2022-09-23T09:00:11;3.33;;;3.03;;
11877;SDS011;5998;42.676;23.268;2022-09-23T09:02:41;3.70;;;3.37;;
11877;SDS011;5998;42.676;23.268;2022-09-23T09:05:08;2.90;;;2.70;;
11877;SDS011;5998;42.676;23.268;2022-09-23T09:07:37;3.20;;;3.00;;
11877;SDS011;5998;42.676;23.268;2022-09-23T09:10:12;3.23;;;2.93;;
11877;SDS011;5998;42.676;23.268;2022-09-23T09:12:50;3.50;;;2.57;;
11877;SDS011;5998;42.676;23.268;2022-09-23T09:15:25;2.90;;;2.70;;
11877;SDS011;5998;42.676;23.268;2022-09-23T09:17:55;9.00;;;3.07;;
11877;SDS011;5998;42.676;23.268;2022-09-23T09:20:28;2.77;;;2.57;;
11877;SDS011;5998;42.676;23.268;2022-09-23T09:23:04;4.03;;;2.50;;
11877;SDS011;5998;42.676;23.268;2022-09-23T09:25:45;3.23;;;2.93;;
11877;SDS011;5998;42.676;23.268;2022-09-23T09:28:16;2.97;;;2.50;;
11877;SDS011;5998;42.676;23.268;2022-09-23T09:30:49;4.27;;;2.67;;
11877;SDS011;5998;42.676;23.268;2022-09-23T09:33:22;2.63;;;2.27;;
11877;SDS011;5998;42.676;23.268;2022-09-23T09:38:48;2.63;;;2.43;;
11877;SDS011;5998;42.676;23.268;2022-09-23T09:41:17;2.60;;;2.40;;
11877;SDS011;5998;42.676;23.268;2022-09-23T09:43:46;2.60;;;2.37;;
11877;SDS011;5998;42.676;23.268;2022-09-23T09:46:39;2.97;;;2.30;;
11877;SDS011;5998;42.676;23.268;2022-09-23T09:49:17;2.50;;;2.30;;
11877;SDS011;5998;42.676;23.268;2022-09-23T09:52:01;4.67;;;2.27;;
11877;SDS011;5998;42.676;23.268;2022-09-23T09:54:37;2.80;;;2.10;;
11877;SDS011;5998;42.676;23.268;2022-09-23T09:57:20;3.57;;;2.30;;
11877;SDS011;5998;42.676;23.268;2022-09-23T09:59:55;2.10;;;2.00;;
11877;SDS011;5998;42.676;23.268;2022-09-23T10:02:24;2.70;;;2.50;;
11877;SDS011;5998;42.676;23.268;2022-09-23T10:04:58;2.10;;;2.00;;
11877;SDS011;5998;42.676;23.268;2022-09-23T10:07:27;2.30;;;2.20;;
11877;SDS011;5998;42.676;23.268;2022-09-23T10:09:56;2.77;;;2.50;;
11877;SDS011;5998;42.676;23.268;2022-09-23T10:12:26;3.20;;;2.90;;
11877;SDS011;5998;42.676;23.268;2022-09-23T10:15:11;2.93;;;2.13;;
11877;SDS011;5998;42.676;23.268;2022-09-23T10:17:52;4.50;;;2.50;;
11877;SDS011;5998;42.676;23.268;2022-09-23T10:20:25;2.20;;;2.10;;
11877;SDS011;5998;42.676;23.268;2022-09-23T10:23:04;2.47;;;2.17;;
11877;SDS011;5998;42.676;23.268;2022-09-23T10:25:32;3.17;;;2.20;;
11877;SDS011;5998;42.676;23.268;2022-09-23T10:28:03;2.37;;;2.17;;
11877;SDS011;5998;42.676;23.268;2022-09-23T10:31:10;2.30;;;2.10;;
11877;SDS011;5998;42.676;23.268;2022-09-23T10:33:43;2.60;;;1.93;;
11877;SDS011;5998;42.676;23.268;2022-09-23T10:36:13;2.30;;;2.10;;
11877;SDS011;5998;42.676;23.268;2022-09-23T10:38:40;2.53;;;2.33;;
11877;SDS011;5998;42.676;23.268;2022-09-23T10:41:11;2.67;;;2.10;;
11877;SDS011;5998;42.676;23.268;2022-09-23T10:44:04;2.23;;;2.10;;
11877;SDS011;5998;42.676;23.268;2022-09-23T10:47:03;6.50;;;2.50;;
11877;SDS011;5998;42.676;23.268;2022-09-23T10:52:42;2.70;;;2.50;;
11877;SDS011;5998;42.676;23.268;2022-09-23T10:55:19;3.17;;;2.40;;
11877;SDS011;5998;42.676;23.268;2022-09-23T10:58:02;3.47;;;2.67;;
11877;SDS011;5998;42.676;23.268;2022-09-23T11:00:54;3.23;;;2.80;;
11877;SDS011;5998;42.676;23.268;2022-09-23T11:03:39;2.70;;;2.50;;
11877;SDS011;5998;42.676;23.268;2022-09-23T11:06:20;2.97;;;2.73;;
11877;SDS011;5998;42.676;23.268;2022-09-23T11:09:04;2.67;;;2.20;;
11877;SDS011;5998;42.676;23.268;2022-09-23T11:11:42;2.87;;;2.57;;
11877;SDS011;5998;42.676;23.268;2022-09-23T11:17:33;2.10;;;1.97;;
11877;SDS011;5998;42.676;23.268;2022-09-23T11:20:26;1.90;;;1.80;;
11877;SDS011;5998;42.676;23.268;2022-09-23T11:23:07;2.53;;;1.63;;
11877;SDS011;5998;42.676;23.268;2022-09-23T11:25:51;2.13;;;2.03;;
11877;SDS011;5998;42.676;23.268;2022-09-23T11:28:36;2.80;;;1.63;;
11877;SDS011;5998;42.676;23.268;2022-09-23T11:31:17;1.70;;;1.60;;
11877;SDS011;5998;42.676;23.268;2022-09-23T11:34:02;2.30;;;1.80;;
11877;SDS011;5998;42.676;23.268;2022-09-23T11:36:43;1.93;;;1.67;;
11877;SDS011;5998;42.676;23.268;2022-09-23T11:39:16;1.90;;;1.80;;
11877;SDS011;5998;42.676;23.268;2022-09-23T11:41:47;1.80;;;1.70;;
11877;SDS011;5998;42.676;23.268;2022-09-23T11:44:19;6.03;;;1.60;;
11877;SDS011;5998;42.676;23.268;2022-09-23T11:46:52;2.50;;;1.43;;
11877;SDS011;5998;42.676;23.268;2022-09-23T11:49:26;5.87;;;1.40;;
11877;SDS011;5998;42.676;23.268;2022-09-23T11:52:01;1.70;;;1.60;;
11877;SDS011;5998;42.676;23.268;2022-09-23T11:54:33;1.60;;;1.50;;
11877;SDS011;5998;42.676;23.268;2022-09-23T11:57:07;1.50;;;1.40;;
11877;SDS011;5998;42.676;23.268;2022-09-23T11:59:38;1.70;;;1.60;;
11877;SDS011;5998;42.676;23.268;2022-09-23T12:02:13;1.40;;;1.30;;
11877;SDS011;5998;42.676;23.268;2022-09-23T12:04:47;1.53;;;1.43;;
11877;SDS011;5998;42.676;23.268;2022-09-23T12:07:26;5.23;;;1.50;;
11877;SDS011;5998;42.676;23.268;2022-09-23T12:09:58;1.47;;;1.37;;
11877;SDS011;5998;42.676;23.268;2022-09-23T12:12:28;1.33;;;1.23;;
11877;SDS011;5998;42.676;23.268;2022-09-23T12:15:15;1.37;;;1.27;;
11877;SDS011;5998;42.676;23.268;2022-09-23T12:17:57;2.80;;;1.30;;
11877;SDS011;5998;42.676;23.268;2022-09-23T12:20:54;1.70;;;1.60;;
11877;SDS011;5998;42.676;23.268;2022-09-23T12:23:45;2.83;;;1.20;;
11877;SDS011;5998;42.676;23.268;2022-09-23T12:26:27;3.27;;;1.60;;
11877;SDS011;5998;42.676;23.268;2022-09-23T12:28:58;3.30;;;1.60;;
11877;SDS011;5998;42.676;23.268;2022-09-23T12:31:27;1.60;;;1.50;;
11877;SDS011;5998;42.676;23.268;2022-09-23T12:33:55;3.47;;;1.63;;
11877;SDS011;5998;42.676;23.268;2022-09-23T12:36:27;1.80;;;1.67;;
11877;SDS011;5998;42.676;23.268;2022-09-23T12:39:00;1.20;;;1.20;;
11877;SDS011;5998;42.676;23.268;2022-09-23T12:41:29;2.53;;;0.90;;
11877;SDS011;5998;42.676;23.268;2022-09-23T12:44:11;3.13;;;1.97;;
11877;SDS011;5998;42.676;23.268;2022-09-23T12:46:40;3.73;;;1.70;;
11877;SDS011;5998;42.676;23.268;2022-09-23T12:49:20;2.47;;;2.00;;
11877;SDS011;5998;42.676;23.268;2022-09-23T12:54:54;5.03;;;1.93;;
11877;SDS011;5998;42.676;23.268;2022-09-23T12:57:40;2.93;;;2.03;;
11877;SDS011;5998;42.676;23.268;2022-09-23T13:00:19;2.60;;;2.10;;
11877;SDS011;5998;42.676;23.268;2022-09-23T13:02:52;2.23;;;2.03;;
11877;SDS011;5998;42.676;23.268;2022-09-23T13:05:42;2.93;;;2.27;;
11877;SDS011;5998;42.676;23.268;2022-09-23T13:08:31;3.90;;;2.20;;
11877;SDS011;5998;42.676;23.268;2022-09-23T13:11:03;2.40;;;2.20;;
11877;SDS011;5998;42.676;23.268;2022-09-23T13:13:33;2.53;;;2.30;;
11877;SDS011;5998;42.676;23.268;2022-09-23T13:16:09;2.50;;;2.30;;
11877;SDS011;5998;42.676;23.268;2022-09-23T13:24:36;5.40;;;2.13;;
11877;SDS011;5998;42.676;23.268;2022-09-23T13:29:54;2.17;;;1.90;;
11877;SDS011;5998;42.676;23.268;2022-09-23T13:32:25;3.07;;;2.47;;
11877;SDS011;5998;42.676;23.268;2022-09-23T13:34:56;2.57;;;1.80;;
11877;SDS011;5998;42.676;23.268;2022-09-23T13:37:29;3.50;;;1.90;;
11877;SDS011;5998;42.676;23.268;2022-09-23T13:40:14;4.93;;;2.33;;
11877;SDS011;5998;42.676;23.268;2022-09-23T13:42:43;2.13;;;1.90;;
11877;SDS011;5998;42.676;23.268;2022-09-23T13:45:15;3.20;;;2.20;;
11877;SDS011;5998;42.676;23.268;2022-09-23T13:47:44;2.20;;;2.00;;
11877;SDS011;5998;42.676;23.268;2022-09-23T13:50:17;1.90;;;1.80;;
11877;SDS011;5998;42.676;23.268;2022-09-23T13:52:50;2.07;;;1.80;;
11877;SDS011;5998;42.676;23.268;2022-09-23T13:55:26;2.67;;;2.10;;
11877;SDS011;5998;42.676;23.268;2022-09-23T13:57:59;4.73;;;2.30;;
11877;SDS011;5998;42.676;23.268;2022-09-23T14:00:32;2.30;;;2.10;;
11877;SDS011;5998;42.676;23.268;2022-09-23T14:03:01;2.63;;;2.13;;
11877;SDS011;5998;42.676;23.268;2022-09-23T14:05:31;4.90;;;2.13;;
11877;SDS011;5998;42.676;23.268;2022-09-23T14:08:00;1.80;;;1.70;;
11877;SDS011;5998;42.676;23.268;2022-09-23T14:10:29;1.97;;;1.70;;
11877;SDS011;5998;42.676;23.268;2022-09-23T14:12:56;2.13;;;1.90;;
11877;SDS011;5998;42.676;23.268;2022-09-23T14:15:23;2.00;;;1.90;;
11877;SDS011;5998;42.676;23.268;2022-09-23T14:17:51;3.57;;;2.00;;
11877;SDS011;5998;42.676;23.268;2022-09-23T14:20:20;4.53;;;1.83;;
11877;SDS011;5998;42.676;23.268;2022-09-23T14:22:47;1.80;;;1.70;;
11877;SDS011;5998;42.676;23.268;2022-09-23T14:25:27;4.90;;;2.63;;
11877;SDS011;5998;42.676;23.268;2022-09-23T14:27:55;2.67;;;2.10;;
11877;SDS011;5998;42.676;23.268;2022-09-23T14:30:22;2.20;;;1.93;;
11877;SDS011;5998;42.676;23.268;2022-09-23T14:32:49;1.90;;;1.80;;
11877;SDS011;5998;42.676;23.268;2022-09-23T14:35:17;1.93;;;1.80;;
11877;SDS011;5998;42.676;23.268;2022-09-23T14:37:47;2.13;;;2.00;;
11877;SDS011;5998;42.676;23.268;2022-09-23T14:40:35;4.07;;;2.10;;
11877;SDS011;5998;42.676;23.268;2022-09-23T14:43:05;1.90;;;1.80;;
11877;SDS011;5998;42.676;23.268;2022-09-23T14:45:42;2.10;;;2.00;;
11877;SDS011;5998;42.676;23.268;2022-09-23T14:48:11;2.27;;;2.07;;
11877;SDS011;5998;42.676;23.268;2022-09-23T14:50:44;2.90;;;2.60;;
11877;SDS011;5998;42.676;23.268;2022-09-23T14:53:32;2.00;;;1.90;;
11877;SDS011;5998;42.676;23.268;2022-09-23T14:58:53;2.23;;;1.90;;
11877;SDS011;5998;42.676;23.268;2022-09-23T15:01:25;2.40;;;2.17;;
11877;SDS011;5998;42.676;23.268;2022-09-23T15:03:59;2.83;;;2.20;;
11877;SDS011;5998;42.676;23.268;2022-09-23T15:06:35;3.40;;;1.97;;
11877;SDS011;5998;42.676;23.268;2022-09-23T15:09:03;2.10;;;2.00;;
11877;SDS011;5998;42.676;23.268;2022-09-23T15:11:30;5.00;;;1.90;;
11877;SDS011;5998;42.676;23.268;2022-09-23T15:14:00;2.20;;;2.00;;
11877;SDS011;5998;42.676;23.268;2022-09-23T15:16:29;2.50;;;2.30;;
11877;SDS011;5998;42.676;23.268;2022-09-23T15:18:57;4.63;;;2.67;;
11877;SDS011;5998;42.676;23.268;2022-09-23T15:21:29;2.40;;;2.20;;
11877;SDS011;5998;42.676;23.268;2022-09-23T15:24:04;3.53;;;2.50;;
11877;SDS011;5998;42.676;23.268;2022-09-23T15:26:39;2.07;;;1.97;;
11877;SDS011;5998;42.676;23.268;2022-09-23T15:29:11;5.20;;;2.50;;
11877;SDS011;5998;42.676;23.268;2022-09-23T15:31:38;3.23;;;2.50;;
11877;SDS011;5998;42.676;23.268;2022-09-23T15:34:05;3.10;;;2.70;;
11877;SDS011;5998;42.676;23.268;2022-09-23T15:36:33;3.87;;;2.20;;
11877;SDS011;5998;42.676;23.268;2022-09-23T15:39:02;7.63;;;2.70;;
11877;SDS011;5998;42.676;23.268;2022-09-23T15:41:32;3.27;;;2.90;;
11877;SDS011;5998;42.676;23.268;2022-09-23T15:44:00;2.63;;;2.43;;